createdAt,value
2022-08-27T00:01:23.472Z,91773.94
2022-08-27T00:03:56.315Z,91761.03
2022-08-27T00:06:28.774Z,91764.34
2022-08-27T00:09:02.234Z,91769.00
2022-08-27T00:11:35.512Z,91772.69
2022-08-27T00:14:07.936Z,91773.34
2022-08-27T00:16:40.472Z,91765.03
2022-08-27T00:19:12.975Z,91769.13
2022-08-27T00:21:45.347Z,91761.63
2022-08-27T00:24:17.848Z,91760.78
2022-08-27T00:26:52.715Z,91755.78
2022-08-27T00:29:25.983Z,91760.53
2022-08-27T00:31:59.224Z,91756.66
2022-08-27T00:34:31.719Z,91756.56
2022-08-27T00:37:05.931Z,91754.25
2022-08-27T00:39:38.547Z,91755.38
2022-08-27T00:42:12.016Z,91757.69
2022-08-27T00:44:44.498Z,91755.28
2022-08-27T00:47:20.390Z,91763.94
2022-08-27T00:49:55.332Z,91759.28
2022-08-27T00:52:30.375Z,91755.88
2022-08-27T00:55:05.772Z,91763.38
2022-08-27T00:57:41.741Z,91753.88
2022-08-27T01:00:17.649Z,91751.22
2022-08-27T01:02:50.043Z,91749.84
2022-08-27T01:05:25.716Z,91733.38
2022-08-27T01:08:06.385Z,91743.81
2022-08-27T01:10:39.787Z,91749.19
2022-08-27T01:13:16.439Z,91750.25
2022-08-27T01:15:50.383Z,91746.47
2022-08-27T01:18:22.781Z,91751.59
2022-08-27T01:21:00.335Z,91739.13
2022-08-27T01:23:42.231Z,91740.16
2022-08-27T01:26:16.713Z,91744.22
2022-08-27T01:28:50.661Z,91743.22
2022-08-27T01:31:23.170Z,91746.78
2022-08-27T01:33:57.960Z,91738.41
2022-08-27T01:36:30.563Z,91742.16
2022-08-27T01:39:03.168Z,91745.00
2022-08-27T01:41:38.541Z,91754.25
2022-08-27T01:44:12.106Z,91750.88
2022-08-27T01:46:44.969Z,91752.41
2022-08-27T01:49:17.388Z,91751.94
2022-08-27T01:51:49.855Z,91762.63
2022-08-27T01:54:22.289Z,91765.06
2022-08-27T01:56:55.538Z,91759.34
2022-08-27T01:59:39.786Z,91759.34
2022-08-27T02:02:16.226Z,91757.72
2022-08-27T02:04:50.197Z,91757.59
2022-08-27T02:07:22.675Z,91761.28
2022-08-27T02:09:55.179Z,91750.34
2022-08-27T02:12:28.284Z,91762.28
2022-08-27T02:15:00.726Z,91758.00
2022-08-27T02:17:33.666Z,91755.97
2022-08-27T02:20:08.750Z,91760.44
2022-08-27T02:22:41.621Z,91757.16
2022-08-27T02:25:14.789Z,91759.78
2022-08-27T02:27:49.089Z,91764.47
2022-08-27T02:30:23.442Z,91758.69
2022-08-27T02:32:55.914Z,91770.41
2022-08-27T02:35:30.384Z,91768.66
2022-08-27T02:38:02.806Z,91764.84
2022-08-27T02:40:36.574Z,91777.44
2022-08-27T02:43:09.745Z,91773.63
2022-08-27T02:45:48.211Z,91776.25
2022-08-27T02:48:21.030Z,91786.97
2022-08-27T02:50:54.084Z,91782.72
2022-08-27T02:53:33.889Z,91788.63
2022-08-27T02:56:07.320Z,91784.81
2022-08-27T02:58:40.870Z,91787.53
2022-08-27T03:01:13.885Z,91785.22
2022-08-27T03:03:46.539Z,91786.00
2022-08-27T03:06:18.947Z,91787.31
2022-08-27T03:08:52.996Z,91785.69
2022-08-27T03:11:25.995Z,91787.19
2022-08-27T03:13:59.207Z,91789.50
2022-08-27T03:16:33.678Z,91788.75
2022-08-27T03:19:07.225Z,91797.28
2022-08-27T03:21:39.647Z,91796.19
2022-08-27T03:24:14.720Z,91794.88
2022-08-27T03:26:52.801Z,91797.84
2022-08-27T03:29:27.675Z,91800.59
2022-08-27T03:32:00.340Z,91799.50
2022-08-27T03:34:32.959Z,91807.38
2022-08-27T03:37:05.428Z,91804.28
2022-08-27T03:39:37.942Z,91805.72
2022-08-27T03:42:10.359Z,91810.13
2022-08-27T03:44:44.243Z,91808.13
2022-08-27T03:47:16.614Z,91806.28
2022-08-27T03:49:49.366Z,91805.41
2022-08-27T03:52:21.795Z,91808.25
2022-08-27T03:54:54.856Z,91803.97
2022-08-27T03:57:27.262Z,91808.91
2022-08-27T04:00:00.725Z,91807.03
2022-08-27T04:02:33.174Z,91813.38
2022-08-27T04:05:06.967Z,91813.38
2022-08-27T04:07:40.278Z,91812.75
2022-08-27T04:10:14.133Z,91816.22
2022-08-27T04:12:46.547Z,91821.69
2022-08-27T04:15:19.948Z,91818.31
2022-08-27T04:17:52.433Z,91819.06
2022-08-27T04:20:35.068Z,91821.25
2022-08-27T04:23:08.695Z,91831.00
2022-08-27T04:25:41.805Z,91824.84
2022-08-27T04:28:15.331Z,91828.03
2022-08-27T04:30:48.513Z,91832.19
2022-08-27T04:33:20.966Z,91826.41
2022-08-27T04:35:58.262Z,91831.22
2022-08-27T04:38:30.674Z,91829.47
2022-08-27T04:41:21.759Z,91828.50
2022-08-27T04:43:55.810Z,91825.78
2022-08-27T04:46:31.094Z,91831.13
2022-08-27T04:49:07.221Z,91822.91
2022-08-27T04:51:43.450Z,91834.06
2022-08-27T04:54:16.099Z,91831.53
2022-08-27T04:56:49.222Z,91826.97
2022-08-27T04:59:21.874Z,91836.69
2022-08-27T05:01:55.137Z,91831.97
2022-08-27T05:04:28.851Z,91839.00
2022-08-27T05:07:01.488Z,91838.44
2022-08-27T05:09:34.105Z,91838.31
2022-08-27T05:12:07.434Z,91829.47
2022-08-27T05:14:39.848Z,91844.53
2022-08-27T05:17:12.921Z,91848.13
2022-08-27T05:19:45.303Z,91841.31
2022-08-27T05:22:17.846Z,91836.69
2022-08-27T05:24:50.634Z,91840.31
2022-08-27T05:27:23.194Z,91841.00
2022-08-27T05:29:55.568Z,91834.97
2022-08-27T05:32:28.808Z,91834.59
2022-08-27T05:35:01.169Z,91836.38
2022-08-27T05:37:33.952Z,91837.50
2022-08-27T05:40:07.677Z,91842.03
2022-08-27T05:42:40.163Z,91840.09
2022-08-27T05:45:14.898Z,91842.28
2022-08-27T05:47:48.142Z,91839.69
2022-08-27T05:50:23.551Z,91840.25
2022-08-27T05:52:56.359Z,91836.75
2022-08-27T05:55:28.748Z,91837.38
2022-08-27T05:58:01.179Z,91846.03
2022-08-27T06:00:56.123Z,91842.94
2022-08-27T06:03:32.156Z,91853.06
2022-08-27T06:06:06.767Z,91849.00
2022-08-27T06:08:39.158Z,91853.50
2022-08-27T06:11:11.539Z,91858.00
2022-08-27T06:13:43.959Z,91855.25
2022-08-27T06:16:18.483Z,91850.69
2022-08-27T06:18:51.732Z,91861.91
2022-08-27T06:21:25.203Z,91866.38
2022-08-27T06:23:57.690Z,91865.88
2022-08-27T06:26:30.295Z,91859.66
2022-08-27T06:29:04.048Z,91862.13
2022-08-27T06:31:37.456Z,91859.72
2022-08-27T06:34:11.934Z,91860.75
2022-08-27T06:36:44.319Z,91859.13
2022-08-27T06:39:16.997Z,91865.06
2022-08-27T06:41:50.099Z,91859.50
2022-08-27T06:44:26.435Z,91871.09
2022-08-27T06:46:59.634Z,91867.09
2022-08-27T06:49:33.275Z,91860.78
2022-08-27T06:52:06.018Z,91863.19
2022-08-27T06:54:39.566Z,91869.41
2022-08-27T06:57:11.935Z,91862.25
2022-08-27T06:59:44.361Z,91869.72
2022-08-27T07:02:16.871Z,91865.69
2022-08-27T07:04:52.634Z,91867.28
2022-08-27T07:07:32.607Z,91864.34
2022-08-27T07:10:09.554Z,91868.16
2022-08-27T07:12:42.356Z,91860.97
2022-08-27T07:15:15.070Z,91859.50
2022-08-27T07:17:47.957Z,91859.91
2022-08-27T07:20:21.882Z,91861.84
2022-08-27T07:22:57.920Z,91867.53
2022-08-27T07:25:31.546Z,91868.69
2022-08-27T07:28:03.993Z,91867.16
2022-08-27T07:30:37.267Z,91869.75
2022-08-27T07:33:09.948Z,91871.97
2022-08-27T07:35:43.681Z,91875.00
2022-08-27T07:38:16.075Z,91871.53
2022-08-27T07:40:48.655Z,91866.91
2022-08-27T07:43:41.831Z,91875.19
2022-08-27T07:46:14.330Z,91877.81
2022-08-27T07:48:46.810Z,91877.00
2022-08-27T07:51:21.244Z,91872.84
2022-08-27T07:53:54.258Z,91881.25
2022-08-27T07:56:26.812Z,91884.56
2022-08-27T07:58:59.174Z,91874.38
2022-08-27T08:01:31.677Z,91884.09
2022-08-27T08:04:04.775Z,91882.13
2022-08-27T08:06:38.947Z,91880.94
2022-08-27T08:09:11.430Z,91883.03
2022-08-27T08:11:44.184Z,91879.03
2022-08-27T08:14:16.796Z,91889.13
2022-08-27T08:16:49.797Z,91882.09
2022-08-27T08:19:22.207Z,91885.00
2022-08-27T08:22:00.404Z,91882.09
2022-08-27T08:24:36.011Z,91884.84
2022-08-27T08:27:10.737Z,91879.66
2022-08-27T08:29:43.227Z,91873.31
2022-08-27T08:32:15.812Z,91879.72
2022-08-27T08:34:48.171Z,91877.78
2022-08-27T08:37:21.258Z,91876.25
2022-08-27T08:39:54.179Z,91881.63
2022-08-27T08:42:35.096Z,91880.81
2022-08-27T08:45:08.198Z,91879.13
2022-08-27T08:47:46.869Z,91884.63
2022-08-27T08:50:23.919Z,91879.91
2022-08-27T08:53:02.034Z,91879.56
2022-08-27T08:55:42.348Z,91877.50
2022-08-27T08:58:26.406Z,91874.97
2022-08-27T09:01:01.960Z,91875.03
2022-08-27T09:03:40.016Z,91882.00
2022-08-27T09:06:19.319Z,91874.09
2022-08-27T09:08:52.570Z,91867.59
2022-08-27T09:11:34.403Z,91871.00
2022-08-27T09:14:20.527Z,91874.88
2022-08-27T09:16:58.801Z,91873.72
2022-08-27T09:19:31.275Z,91871.34
2022-08-27T09:22:14.959Z,91873.97
2022-08-27T09:24:58.649Z,91862.41
2022-08-27T09:27:31.859Z,91869.59
2022-08-27T09:30:09.819Z,91862.81
2022-08-27T09:32:42.158Z,91864.94
2022-08-27T09:35:15.338Z,91865.88
2022-08-27T09:37:51.406Z,91863.06
2022-08-27T09:40:28.951Z,91865.78
2022-08-27T09:43:07.207Z,91862.81
2022-08-27T09:45:47.323Z,91872.56
2022-08-27T09:48:22.557Z,91867.19
2022-08-27T09:50:58.078Z,91868.03
2022-08-27T09:53:37.243Z,91870.28
2022-08-27T09:56:23.087Z,91872.00
2022-08-27T09:59:00.691Z,91865.13
2022-08-27T10:01:37.870Z,91866.88
2022-08-27T10:04:14.322Z,91863.56
2022-08-27T10:06:49.241Z,91862.44
2022-08-27T10:09:32.868Z,91866.19
2022-08-27T10:12:13.416Z,91863.13
2022-08-27T10:14:51.399Z,91860.13
2022-08-27T10:17:34.472Z,91862.59
2022-08-27T10:20:14.229Z,91866.00
2022-08-27T10:22:56.610Z,91862.69
2022-08-27T10:25:37.446Z,91869.72
2022-08-27T10:28:21.336Z,91865.50
2022-08-27T10:31:08.047Z,91871.97
2022-08-27T10:33:53.495Z,91865.00
2022-08-27T10:36:37.699Z,91862.13
2022-08-27T10:39:18.623Z,91866.88
2022-08-27T10:42:01.470Z,91870.22
2022-08-27T10:44:49.653Z,91872.38
2022-08-27T10:47:52.121Z,91874.00
2022-08-27T10:50:30.255Z,91866.13
2022-08-27T10:53:08.291Z,91873.16
2022-08-27T10:55:45.229Z,91877.75
2022-08-27T10:58:28.750Z,91869.28
2022-08-27T11:01:11.203Z,91864.09
2022-08-27T11:03:48.955Z,91876.09
2022-08-27T11:06:25.620Z,91862.66
2022-08-27T11:09:07.484Z,91863.94
2022-08-27T11:14:43.029Z,91860.75
2022-08-27T11:17:23.767Z,91857.03
2022-08-27T11:20:01.174Z,91858.94
2022-08-27T11:22:38.536Z,91852.66
2022-08-27T11:25:35.368Z,91854.28
2022-08-27T11:28:10.045Z,91850.81
2022-08-27T11:30:55.854Z,91844.03
2022-08-27T11:33:35.177Z,91837.25
2022-08-27T11:36:47.660Z,91844.59
2022-08-27T11:39:47.597Z,91841.22
2022-08-27T11:42:36.658Z,91847.88
2022-08-27T11:45:17.083Z,91844.28
2022-08-27T11:47:54.431Z,91842.69
2022-08-27T11:50:30.584Z,91834.38
2022-08-27T11:53:05.780Z,91841.81
2022-08-27T11:55:39.890Z,91841.75
2022-08-27T11:58:25.475Z,91839.00
2022-08-27T12:01:02.228Z,91836.63
2022-08-27T12:03:37.281Z,91822.47
2022-08-27T12:06:19.509Z,91827.31
2022-08-27T12:08:52.596Z,91822.41
2022-08-27T12:11:40.547Z,91822.56
2022-08-27T12:14:24.654Z,91819.69
2022-08-27T12:17:03.205Z,91811.06
2022-08-27T12:19:52.470Z,91812.63
2022-08-27T12:23:11.400Z,91815.59
2022-08-27T12:25:55.866Z,91819.97
2022-08-27T12:28:28.370Z,91802.06
2022-08-27T12:31:04.232Z,91809.78
2022-08-27T12:33:41.836Z,91806.28
2022-08-27T12:36:20.007Z,91800.63
2022-08-27T12:39:03.163Z,91799.97
2022-08-27T12:41:44.071Z,91800.53
2022-08-27T12:44:25.254Z,91810.25
2022-08-27T12:47:01.268Z,91799.66
2022-08-27T12:49:38.061Z,91804.44
2022-08-27T12:52:30.239Z,91803.88
2022-08-27T12:55:19.300Z,91802.06
2022-08-27T12:58:04.364Z,91796.75
2022-08-27T13:00:55.781Z,91793.97
2022-08-27T13:03:33.704Z,91789.72
2022-08-27T13:06:15.803Z,91797.34
2022-08-27T13:08:53.370Z,91790.81
2022-08-27T13:11:28.832Z,91788.13
2022-08-27T13:14:07.990Z,91794.13
2022-08-27T13:16:46.330Z,91786.22
2022-08-27T13:19:23.699Z,91793.06
2022-08-27T13:21:57.559Z,91795.66
2022-08-27T13:24:32.962Z,91786.41
2022-08-27T13:27:06.335Z,91788.25
2022-08-27T13:29:39.859Z,91787.19
2022-08-27T13:32:14.634Z,91781.34
2022-08-27T13:34:47.711Z,91778.25
2022-08-27T13:37:26.227Z,91772.56
2022-08-27T13:39:58.678Z,91780.38
2022-08-27T13:42:32.831Z,91778.25
2022-08-27T13:45:07.064Z,91767.94
2022-08-27T13:47:44.607Z,91768.69
2022-08-27T13:50:22.060Z,91776.41
2022-08-27T13:53:22.356Z,91774.78
2022-08-27T13:55:56.608Z,91766.00
2022-08-27T13:58:31.844Z,91781.66
2022-08-27T14:01:09.684Z,91780.69
2022-08-27T14:03:48.519Z,91781.56
2022-08-27T14:06:25.825Z,91777.09
2022-08-27T14:09:14.507Z,91783.94
2022-08-27T14:11:47.368Z,91776.31
2022-08-27T14:14:20.558Z,91777.22
2022-08-27T14:16:58.098Z,91784.00
2022-08-27T14:19:33.390Z,91781.97
2022-08-27T14:22:08.756Z,91786.94
2022-08-27T14:24:41.315Z,91780.53
2022-08-27T14:27:16.284Z,91789.16
2022-08-27T14:29:49.453Z,91786.56
2022-08-27T14:32:21.844Z,91793.81
2022-08-27T14:34:54.203Z,91793.22
2022-08-27T14:37:26.922Z,91791.41
2022-08-27T14:39:59.549Z,91788.06
2022-08-27T14:42:33.555Z,91787.81
2022-08-27T14:45:08.382Z,91791.16
2022-08-27T14:47:42.962Z,91788.75
2022-08-27T14:50:15.672Z,91786.50
2022-08-27T14:52:48.300Z,91784.47
2022-08-27T14:55:20.903Z,91785.25
2022-08-27T14:57:53.262Z,91787.69
2022-08-27T15:00:27.235Z,91784.91
2022-08-27T15:02:59.607Z,91782.41
2022-08-27T15:05:32.019Z,91784.34
2022-08-27T15:08:04.778Z,91783.75
2022-08-27T15:10:37.359Z,91786.53
2022-08-27T15:13:10.674Z,91780.22
2022-08-27T15:15:43.971Z,91776.03
2022-08-27T15:18:17.221Z,91788.50
2022-08-27T15:20:49.880Z,91779.28
2022-08-27T15:23:22.313Z,91776.34
2022-08-27T15:25:54.752Z,91778.88
2022-08-27T15:28:27.208Z,91786.66
2022-08-27T15:31:00.420Z,91778.69
2022-08-27T15:33:32.914Z,91780.84
2022-08-27T15:36:05.752Z,91780.84
2022-08-27T15:38:38.242Z,91771.88
2022-08-27T15:41:11.011Z,91775.97
2022-08-27T15:43:43.516Z,91772.13
2022-08-27T15:46:16.662Z,91769.84
2022-08-27T15:48:49.060Z,91776.63
2022-08-27T15:51:28.046Z,91767.94
2022-08-27T15:54:00.719Z,91772.59
2022-08-27T15:56:34.732Z,91777.72
2022-08-27T15:59:07.262Z,91783.94
2022-08-27T16:01:40.681Z,91779.63
2022-08-27T16:04:15.097Z,91775.94
2022-08-27T16:06:48.403Z,91770.25
2022-08-27T16:09:21.203Z,91777.91
2022-08-27T16:11:53.574Z,91778.47
2022-08-27T16:14:25.953Z,91783.91
2022-08-27T16:16:59.670Z,91788.72
2022-08-27T16:19:32.246Z,91790.03
2022-08-27T16:22:06.298Z,91792.06
2022-08-27T16:24:38.724Z,91793.34
2022-08-27T16:27:11.420Z,91801.16
2022-08-27T16:29:43.811Z,91803.72
2022-08-27T16:32:18.827Z,91812.28
2022-08-27T16:34:54.911Z,91817.88
2022-08-27T16:37:28.398Z,91813.41
2022-08-27T16:40:00.827Z,91815.56
2022-08-27T16:42:33.394Z,91816.84
2022-08-27T16:45:06.623Z,91814.75
2022-08-27T16:47:54.298Z,91817.56
2022-08-27T16:50:33.910Z,91824.97
2022-08-27T16:53:09.012Z,91817.13
2022-08-27T16:55:42.938Z,91819.34
2022-08-27T16:58:18.314Z,91824.91
2022-08-27T17:00:52.796Z,91828.06
2022-08-27T17:03:26.189Z,91831.28
2022-08-27T17:05:58.838Z,91831.84
2022-08-27T17:08:31.235Z,91836.25
2022-08-27T17:11:09.048Z,91838.22
2022-08-27T17:13:42.446Z,91838.63
2022-08-27T17:16:18.750Z,91841.34
2022-08-27T17:18:52.514Z,91853.91
2022-08-27T17:21:29.896Z,91852.06
2022-08-27T17:24:03.711Z,91860.09
2022-08-27T17:26:36.744Z,91856.69
2022-08-27T17:29:09.187Z,91860.94
2022-08-27T17:31:42.846Z,91865.50
2022-08-27T17:34:20.233Z,91873.16
2022-08-27T17:36:53.403Z,91874.72
2022-08-27T17:39:26.374Z,91878.56
2022-08-27T17:41:58.879Z,91871.31
2022-08-27T17:44:34.183Z,91878.56
2022-08-27T17:47:08.331Z,91880.47
2022-08-27T17:49:41.460Z,91878.94
2022-08-27T17:52:15.019Z,91884.28
2022-08-27T17:54:50.459Z,91889.22
2022-08-27T17:57:25.490Z,91881.97
2022-08-27T18:00:01.480Z,91881.56
2022-08-27T18:02:39.671Z,91884.56
2022-08-27T18:05:13.833Z,91884.56
2022-08-27T18:07:47.193Z,91894.38
2022-08-27T18:10:23.134Z,91896.59
2022-08-27T18:12:55.658Z,91897.75
2022-08-27T18:15:31.210Z,91899.97
2022-08-27T18:18:04.560Z,91895.34
2022-08-27T18:20:42.680Z,91895.75
2022-08-27T18:23:15.497Z,91888.19
2022-08-27T18:25:48.111Z,91894.63
2022-08-27T18:28:21.547Z,91898.34
2022-08-27T18:30:54.473Z,91902.13
2022-08-27T18:33:26.936Z,91898.69
2022-08-27T18:36:00.391Z,91895.28
2022-08-27T18:38:32.805Z,91910.59
2022-08-27T18:41:08.336Z,91910.59
2022-08-27T18:43:41.830Z,91915.50
2022-08-27T18:46:15.080Z,91917.00
2022-08-27T18:48:48.758Z,91919.22
2022-08-27T18:51:22.149Z,91924.84
2022-08-27T18:53:54.595Z,91922.84
2022-08-27T18:56:27.055Z,91923.91
2022-08-27T18:58:59.477Z,91932.13
2022-08-27T19:01:32.095Z,91931.38
2022-08-27T19:04:05.087Z,91936.56
2022-08-27T19:06:38.180Z,91931.69
2022-08-27T19:09:10.695Z,91946.44
2022-08-27T19:11:43.150Z,91936.56
2022-08-27T19:14:15.569Z,91946.44
2022-08-27T19:16:53.022Z,91944.09
2022-08-27T19:19:26.607Z,91947.03
2022-08-27T19:22:00.924Z,91952.25
2022-08-27T19:24:40.115Z,91955.56
2022-08-27T19:27:13.462Z,91954.03
2022-08-27T19:29:46.095Z,91955.19
2022-08-27T19:32:18.604Z,91956.66
2022-08-27T19:34:52.392Z,91954.34
2022-08-27T19:37:28.932Z,91954.34
2022-08-27T19:40:01.477Z,91961.91
2022-08-27T19:42:34.478Z,91962.63
2022-08-27T19:45:08.705Z,91960.34
2022-08-27T19:47:41.115Z,91970.13
2022-08-27T19:50:16.003Z,91967.81
2022-08-27T19:52:49.856Z,91951.00
2022-08-27T19:55:22.317Z,91968.06
2022-08-27T19:57:54.806Z,91972.88
2022-08-27T20:00:27.793Z,91964.16
2022-08-27T20:03:00.433Z,91976.09
2022-08-27T20:05:32.904Z,91973.25
2022-08-27T20:08:06.264Z,91978.19
2022-08-27T20:10:38.703Z,91971.53
2022-08-27T20:13:11.623Z,91976.84
2022-08-27T20:15:44.063Z,91973.44
2022-08-27T20:18:20.723Z,91965.84
2022-08-27T20:20:53.242Z,91972.22
2022-08-27T20:23:27.164Z,91975.53
2022-08-27T20:26:01.412Z,91980.75
2022-08-27T20:28:41.996Z,91980.72
2022-08-27T20:31:14.722Z,91983.34
2022-08-27T20:33:47.187Z,91984.06
2022-08-27T20:36:22.206Z,91990.81
2022-08-27T20:38:55.428Z,91983.25
2022-08-27T20:41:28.634Z,91978.94
2022-08-27T20:44:01.443Z,91982.59
2022-08-27T20:46:34.232Z,91983.25
2022-08-27T20:49:07.255Z,91982.84
2022-08-27T20:52:02.251Z,91977.94
2022-08-27T20:54:33.378Z,91987.63
2022-08-27T20:57:05.876Z,91985.38
2022-08-27T20:59:57.279Z,91984.59
2022-08-27T21:02:30.234Z,91978.63
2022-08-27T21:05:08.047Z,91975.56
2022-08-27T21:07:41.615Z,91982.31
2022-08-27T21:10:15.166Z,91974.25
2022-08-27T21:12:48.734Z,91982.53
2022-08-27T21:15:21.252Z,91970.22
2022-08-27T21:17:53.596Z,91984.47
2022-08-27T21:20:26.019Z,91987.88
2022-08-27T21:22:58.960Z,91984.41
2022-08-27T21:25:32.051Z,91986.97
2022-08-27T21:28:06.731Z,91986.09
2022-08-27T21:30:39.294Z,91981.50
2022-08-27T21:33:11.714Z,91989.44
2022-08-27T21:35:44.173Z,91995.84
2022-08-27T21:38:16.606Z,91996.47
2022-08-27T21:40:49.686Z,91992.03
2022-08-27T21:43:22.218Z,91993.13
2022-08-27T21:45:55.743Z,91990.91
2022-08-27T21:48:28.453Z,91996.13
2022-08-27T21:51:07.426Z,91992.97
2022-08-27T21:53:40.118Z,92001.69
2022-08-27T21:56:16.043Z,91994.66
2022-08-27T21:58:48.415Z,91999.94
2022-08-27T22:01:21.037Z,91994.22
2022-08-27T22:03:54.487Z,91997.22
2022-08-27T22:06:26.901Z,91988.19
2022-08-27T22:08:59.666Z,91994.16
2022-08-27T22:11:32.760Z,91986.66
2022-08-27T22:14:05.159Z,91985.13
2022-08-27T22:16:37.602Z,91979.44
2022-08-27T22:19:10.024Z,91986.94
2022-08-27T22:21:42.951Z,91982.91
2022-08-27T22:24:15.586Z,91970.88
2022-08-27T22:26:48.667Z,91981.94
2022-08-27T22:29:21.195Z,91984.84
2022-08-27T22:31:53.584Z,91980.59
2022-08-27T22:34:25.990Z,91976.75
2022-08-27T22:36:58.401Z,91981.63
2022-08-27T22:39:31.037Z,91979.59
2022-08-27T22:42:04.610Z,91976.56
2022-08-27T22:44:39.715Z,91978.41
2022-08-27T22:47:14.177Z,91978.06
2022-08-27T22:49:46.562Z,91980.38
2022-08-27T22:52:18.970Z,91992.38
2022-08-27T22:54:52.234Z,91985.25
2022-08-27T22:57:28.150Z,91981.41
2022-08-27T23:00:00.527Z,91983.63
2022-08-27T23:02:33.063Z,91980.53
2022-08-27T23:05:06.955Z,91979.34
2022-08-27T23:07:39.645Z,91983.53
2022-08-27T23:10:15.356Z,91981.59
2022-08-27T23:12:48.535Z,91987.13
2022-08-27T23:15:23.123Z,91995.78
2022-08-27T23:17:56.442Z,91989.78
2022-08-27T23:20:29.260Z,91992.75
2022-08-27T23:23:02.593Z,91985.88
2022-08-27T23:25:53.389Z,91988.06
2022-08-27T23:28:26.620Z,91982.44
2022-08-27T23:30:59.415Z,91988.50
2022-08-27T23:33:31.899Z,91978.06
2022-08-27T23:36:04.695Z,91991.06
2022-08-27T23:38:37.158Z,91983.06
2022-08-27T23:41:09.882Z,91983.56
2022-08-27T23:43:44.290Z,91977.81
2022-08-27T23:46:16.750Z,91982.22
2022-08-27T23:48:49.194Z,91972.78
2022-08-27T23:51:21.714Z,91977.97
2022-08-27T23:53:54.160Z,91986.81
2022-08-27T23:56:29.969Z,91984.19
2022-08-27T23:59:04.430Z,91989.31
